createdAt,value
2016-10-26T00:00:19.134Z,0
2016-10-26T00:01:19.115Z,0
2016-10-26T00:02:19.487Z,0
2016-10-26T00:03:18.171Z,0
2016-10-26T00:04:19.182Z,0
2016-10-26T00:05:18.942Z,0
2016-10-26T00:06:18.201Z,0
2016-10-26T00:07:18.785Z,0
2016-10-26T00:08:18.146Z,0
2016-10-26T00:09:18.054Z,0
2016-10-26T00:10:18.460Z,0
2016-10-26T00:11:18.235Z,0
2016-10-26T00:12:18.120Z,0
2016-10-26T00:13:18.113Z,0
2016-10-26T00:14:18.118Z,0
2016-10-26T00:15:18.338Z,0
2016-10-26T00:16:18.591Z,0
2016-10-26T00:17:18.511Z,0
2016-10-26T00:18:18.098Z,0
2016-10-26T00:19:18.396Z,0
2016-10-26T00:20:18.827Z,0
2016-10-26T00:21:18.088Z,0
2016-10-26T00:22:18.335Z,0
2016-10-26T00:23:18.098Z,0
2016-10-26T00:24:19.116Z,0
2016-10-26T00:25:18.107Z,0
2016-10-26T00:26:19.111Z,0
2016-10-26T00:27:18.875Z,0
2016-10-26T00:28:18.104Z,0
2016-10-26T00:29:18.785Z,0
2016-10-26T00:30:18.163Z,0
2016-10-26T00:31:18.465Z,0
2016-10-26T00:32:18.191Z,0
2016-10-26T00:33:18.141Z,0
2016-10-26T00:34:18.220Z,0
2016-10-26T00:35:18.554Z,0
2016-10-26T00:36:18.569Z,0
2016-10-26T00:37:18.110Z,0
2016-10-26T00:38:18.166Z,0
2016-10-26T00:39:18.184Z,0
2016-10-26T00:40:18.470Z,0
2016-10-26T00:41:18.501Z,0
2016-10-26T00:42:18.157Z,0
2016-10-26T00:43:18.154Z,0
2016-10-26T00:44:18.308Z,0
2016-10-26T00:45:18.220Z,0
2016-10-26T00:46:18.149Z,0
2016-10-26T00:47:19.241Z,0
2016-10-26T00:48:18.193Z,0
2016-10-26T00:49:18.294Z,0
2016-10-26T00:50:18.191Z,0
2016-10-26T00:51:18.181Z,0
2016-10-26T00:52:18.159Z,0
2016-10-26T00:53:18.118Z,0
2016-10-26T00:54:18.116Z,0
2016-10-26T00:55:18.100Z,0
2016-10-26T00:56:18.153Z,0
2016-10-26T00:57:18.199Z,0
2016-10-26T00:58:18.134Z,0
2016-10-26T00:59:18.170Z,0
2016-10-26T01:00:18.482Z,0
2016-10-26T01:01:18.493Z,0
2016-10-26T01:02:18.502Z,0
2016-10-26T01:03:19.243Z,0
2016-10-26T01:04:18.464Z,0
2016-10-26T01:05:18.480Z,0
2016-10-26T01:06:18.433Z,0
2016-10-26T01:07:18.407Z,0
2016-10-26T01:08:18.458Z,0
2016-10-26T01:09:18.507Z,0
2016-10-26T01:10:18.412Z,0
2016-10-26T01:11:18.560Z,0
2016-10-26T01:12:18.468Z,0
2016-10-26T01:13:18.503Z,0
2016-10-26T01:14:18.512Z,0
2016-10-26T01:15:19.402Z,0
2016-10-26T01:16:18.605Z,0
2016-10-26T01:17:18.522Z,0
2016-10-26T01:18:18.515Z,0
2016-10-26T01:19:18.564Z,0
2016-10-26T01:20:18.545Z,0
2016-10-26T01:21:18.547Z,0
2016-10-26T01:22:18.410Z,0
2016-10-26T01:23:18.764Z,0
2016-10-26T01:24:18.403Z,0
2016-10-26T01:25:18.502Z,0
2016-10-26T01:26:18.521Z,0
2016-10-26T01:27:18.544Z,0
2016-10-26T01:28:18.486Z,0
2016-10-26T01:29:18.540Z,0
2016-10-26T01:30:18.489Z,0
2016-10-26T01:31:18.339Z,0
2016-10-26T01:32:18.633Z,0
2016-10-26T01:33:18.492Z,0
2016-10-26T01:34:18.439Z,0
2016-10-26T01:35:18.448Z,0
2016-10-26T01:36:18.513Z,0
2016-10-26T01:37:18.539Z,0
2016-10-26T01:38:18.470Z,0
2016-10-26T01:39:18.445Z,0
2016-10-26T01:40:18.513Z,0
2016-10-26T01:41:18.547Z,0
2016-10-26T01:42:18.591Z,0
2016-10-26T01:43:18.602Z,0
2016-10-26T01:44:18.567Z,0
2016-10-26T01:45:18.523Z,0
2016-10-26T01:46:18.697Z,0
2016-10-26T01:47:18.618Z,0
2016-10-26T01:48:18.531Z,0
2016-10-26T01:49:18.551Z,0
2016-10-26T01:50:18.553Z,0
2016-10-26T01:51:18.620Z,0
2016-10-26T01:52:18.732Z,0
2016-10-26T01:53:18.506Z,0
2016-10-26T01:54:18.663Z,0
2016-10-26T01:55:18.775Z,0
2016-10-26T01:56:18.952Z,0
2016-10-26T01:57:18.498Z,0
2016-10-26T01:58:18.509Z,0
2016-10-26T01:59:18.643Z,0
2016-10-26T02:00:18.880Z,0
2016-10-26T02:01:18.630Z,0
2016-10-26T02:02:18.678Z,0
2016-10-26T02:03:59.189Z,0
2016-10-26T02:04:18.562Z,0
2016-10-26T02:05:18.562Z,0
2016-10-26T02:06:18.514Z,0
2016-10-26T02:07:18.596Z,0
2016-10-26T02:08:19.190Z,0
2016-10-26T02:09:18.745Z,0
2016-10-26T02:10:18.567Z,0
2016-10-26T02:11:18.827Z,0
2016-10-26T02:12:18.606Z,0
2016-10-26T02:13:18.561Z,0
2016-10-26T02:14:18.559Z,0
2016-10-26T02:15:18.574Z,0
2016-10-26T02:16:18.594Z,0
2016-10-26T02:17:19.430Z,0
2016-10-26T02:18:18.575Z,0
2016-10-26T02:19:18.437Z,0
2016-10-26T02:20:18.340Z,0
2016-10-26T02:21:18.517Z,0
2016-10-26T02:22:18.402Z,0
2016-10-26T02:23:18.405Z,0
2016-10-26T02:24:18.492Z,0
2016-10-26T02:25:18.428Z,0
2016-10-26T02:26:18.472Z,0
2016-10-26T02:27:18.297Z,0
2016-10-26T02:28:19.494Z,0
2016-10-26T02:29:18.501Z,0
2016-10-26T02:30:18.413Z,0
2016-10-26T02:31:18.431Z,0
2016-10-26T02:32:18.374Z,0
2016-10-26T02:33:18.288Z,0
2016-10-26T02:34:18.276Z,0
2016-10-26T02:35:18.498Z,0
2016-10-26T02:36:18.242Z,0
2016-10-26T02:37:18.315Z,0
2016-10-26T02:38:18.242Z,0
2016-10-26T02:39:18.255Z,0
2016-10-26T02:40:18.230Z,0
2016-10-26T02:41:18.194Z,0
2016-10-26T02:42:18.370Z,0
2016-10-26T02:43:18.210Z,0
2016-10-26T02:44:18.210Z,0
2016-10-26T02:45:18.218Z,0
2016-10-26T02:46:18.471Z,0
2016-10-26T02:47:18.239Z,0
2016-10-26T02:48:18.222Z,0
2016-10-26T02:49:18.246Z,0
2016-10-26T02:50:18.193Z,0
2016-10-26T02:51:18.169Z,0
2016-10-26T02:52:18.630Z,0
2016-10-26T02:53:18.225Z,0
2016-10-26T02:54:18.259Z,0
2016-10-26T02:55:18.240Z,0
2016-10-26T02:56:18.289Z,0
2016-10-26T02:57:18.237Z,0
2016-10-26T02:58:18.259Z,0
2016-10-26T02:59:18.313Z,0
2016-10-26T03:00:18.347Z,0
2016-10-26T03:01:18.259Z,0
2016-10-26T03:02:18.199Z,0
2016-10-26T03:03:18.243Z,0
2016-10-26T03:04:18.228Z,0
2016-10-26T03:05:18.265Z,0
2016-10-26T03:06:18.254Z,0
2016-10-26T03:07:18.233Z,0
2016-10-26T03:08:18.198Z,0
2016-10-26T03:09:18.224Z,0
2016-10-26T03:10:18.297Z,0
2016-10-26T03:11:18.448Z,0
2016-10-26T03:12:18.199Z,0
2016-10-26T03:13:18.264Z,0
2016-10-26T03:14:18.264Z,0
2016-10-26T03:15:19.310Z,0
2016-10-26T03:16:18.275Z,0
2016-10-26T03:17:18.206Z,0
2016-10-26T03:18:18.233Z,0
2016-10-26T03:19:18.211Z,0
2016-10-26T03:20:18.324Z,0
2016-10-26T03:21:18.302Z,0
2016-10-26T03:22:18.224Z,0
2016-10-26T03:23:18.233Z,0
2016-10-26T03:24:18.238Z,0
2016-10-26T03:25:18.249Z,0
2016-10-26T03:26:18.252Z,0
2016-10-26T03:27:18.246Z,0
2016-10-26T03:28:18.291Z,0
2016-10-26T03:29:18.269Z,0
2016-10-26T03:30:18.275Z,0
2016-10-26T03:31:18.263Z,0
2016-10-26T03:32:18.287Z,0
2016-10-26T03:33:18.255Z,0
2016-10-26T03:34:18.263Z,0
2016-10-26T03:35:18.253Z,0
2016-10-26T03:36:18.301Z,0
2016-10-26T03:37:18.263Z,0
2016-10-26T03:38:18.262Z,0
2016-10-26T03:39:18.403Z,0
2016-10-26T03:40:18.290Z,0
2016-10-26T03:41:18.301Z,0
2016-10-26T03:42:18.275Z,0
2016-10-26T03:43:18.348Z,0
2016-10-26T03:44:18.267Z,0
2016-10-26T03:45:18.378Z,0
2016-10-26T03:46:18.253Z,0
2016-10-26T03:47:18.258Z,0
2016-10-26T03:48:18.319Z,0
2016-10-26T03:49:18.272Z,0
2016-10-26T03:50:18.470Z,0
2016-10-26T03:51:18.229Z,0
2016-10-26T03:52:18.250Z,0
2016-10-26T03:53:18.313Z,0
2016-10-26T03:54:18.274Z,0
2016-10-26T03:55:18.301Z,0
2016-10-26T03:56:18.239Z,0
2016-10-26T03:57:18.284Z,0
2016-10-26T03:58:18.267Z,0
2016-10-26T03:59:18.261Z,0
2016-10-26T04:00:18.264Z,0
2016-10-26T04:01:18.250Z,0
2016-10-26T04:02:18.359Z,0
2016-10-26T04:03:18.230Z,0
2016-10-26T04:04:18.265Z,0
2016-10-26T04:05:18.255Z,0
2016-10-26T04:06:18.279Z,0
2016-10-26T04:07:18.251Z,0
2016-10-26T04:08:18.261Z,0
2016-10-26T04:09:18.284Z,0
2016-10-26T04:10:18.530Z,0
2016-10-26T04:11:18.356Z,0
2016-10-26T04:12:18.319Z,0
2016-10-26T04:13:18.260Z,0
2016-10-26T04:14:18.477Z,0
2016-10-26T04:15:18.319Z,0
2016-10-26T04:16:18.346Z,0
2016-10-26T04:17:18.495Z,0
2016-10-26T04:18:18.426Z,0
2016-10-26T04:19:18.272Z,0
2016-10-26T04:20:18.328Z,0
2016-10-26T04:21:18.292Z,0
2016-10-26T04:22:18.390Z,0
2016-10-26T04:23:18.323Z,0
2016-10-26T04:24:18.294Z,0
2016-10-26T04:25:18.320Z,0
2016-10-26T04:26:18.271Z,0
2016-10-26T04:27:18.265Z,0
2016-10-26T04:28:18.269Z,0
2016-10-26T04:29:18.378Z,0
2016-10-26T04:30:18.394Z,0
2016-10-26T04:31:18.358Z,0
2016-10-26T04:32:18.398Z,0
2016-10-26T04:33:18.298Z,0
2016-10-26T04:34:18.291Z,0
2016-10-26T04:35:18.522Z,0
2016-10-26T04:36:18.303Z,0
2016-10-26T04:37:18.364Z,0
2016-10-26T04:38:18.443Z,0
2016-10-26T04:39:18.784Z,0
2016-10-26T04:40:18.294Z,0
2016-10-26T04:41:18.355Z,0
2016-10-26T04:42:18.301Z,0
2016-10-26T04:43:18.295Z,0
2016-10-26T04:44:18.376Z,0
2016-10-26T04:45:19.297Z,0
2016-10-26T04:46:18.385Z,0
2016-10-26T04:47:18.355Z,0
2016-10-26T04:48:18.301Z,0
2016-10-26T04:49:18.286Z,0
2016-10-26T04:50:18.353Z,0
2016-10-26T04:51:18.332Z,0
2016-10-26T04:52:18.272Z,0
2016-10-26T04:53:18.383Z,0
2016-10-26T04:54:18.347Z,0
2016-10-26T04:55:18.332Z,0
2016-10-26T04:56:18.324Z,0
2016-10-26T04:57:18.305Z,0
2016-10-26T04:58:18.394Z,0
2016-10-26T04:59:18.340Z,0
2016-10-26T05:00:18.367Z,0
2016-10-26T05:01:18.393Z,0
2016-10-26T05:02:18.344Z,0
2016-10-26T05:03:18.344Z,0
2016-10-26T05:04:18.389Z,0
2016-10-26T05:05:18.919Z,0
2016-10-26T05:06:18.339Z,0
2016-10-26T05:07:18.447Z,0
2016-10-26T05:08:18.380Z,0
2016-10-26T05:09:18.328Z,0
2016-10-26T05:10:18.339Z,0
2016-10-26T05:11:18.326Z,0
2016-10-26T05:12:18.344Z,0
2016-10-26T05:13:18.325Z,0
2016-10-26T05:14:18.221Z,0
2016-10-26T05:15:18.271Z,0
2016-10-26T05:16:18.360Z,0
2016-10-26T05:17:18.348Z,0
2016-10-26T05:18:18.417Z,0
2016-10-26T05:19:18.380Z,0
2016-10-26T05:20:18.367Z,0
2016-10-26T05:21:18.425Z,0
2016-10-26T05:22:18.385Z,0
2016-10-26T05:23:18.364Z,0
2016-10-26T05:24:18.354Z,0
2016-10-26T05:25:19.027Z,0
2016-10-26T05:26:18.424Z,0
2016-10-26T05:27:18.360Z,0
2016-10-26T05:28:18.358Z,0
2016-10-26T05:29:18.573Z,0
2016-10-26T05:30:18.339Z,0
2016-10-26T05:31:18.451Z,0
2016-10-26T05:32:18.456Z,0
2016-10-26T05:33:18.406Z,0
2016-10-26T05:34:18.400Z,0
2016-10-26T05:35:18.377Z,0
2016-10-26T05:36:18.303Z,0
2016-10-26T05:37:18.342Z,0
2016-10-26T05:38:18.600Z,0
2016-10-26T05:39:18.352Z,0
2016-10-26T05:40:18.394Z,0
2016-10-26T05:41:18.402Z,0
2016-10-26T05:42:18.307Z,0
2016-10-26T05:43:18.367Z,0
2016-10-26T05:44:18.386Z,0
2016-10-26T05:45:18.404Z,0
2016-10-26T05:46:18.355Z,0
2016-10-26T05:47:18.409Z,0
2016-10-26T05:48:18.416Z,0
2016-10-26T05:49:19.076Z,0
2016-10-26T05:50:18.385Z,0
2016-10-26T05:51:18.345Z,0
2016-10-26T05:52:18.396Z,0
2016-10-26T05:53:18.458Z,0
2016-10-26T05:54:18.494Z,0
2016-10-26T05:55:18.469Z,0
2016-10-26T05:56:19.020Z,0
2016-10-26T05:57:18.442Z,0
2016-10-26T05:58:18.390Z,0
2016-10-26T05:59:18.363Z,0
2016-10-26T06:00:18.372Z,0
2016-10-26T06:01:18.387Z,0
2016-10-26T06:02:18.347Z,0
2016-10-26T06:03:18.455Z,0
2016-10-26T06:04:18.386Z,0
2016-10-26T06:05:18.423Z,0
2016-10-26T06:06:18.429Z,0
2016-10-26T06:07:18.374Z,0
2016-10-26T06:08:18.441Z,0
2016-10-26T06:09:18.395Z,0
2016-10-26T06:10:18.454Z,0
2016-10-26T06:11:18.432Z,0
2016-10-26T06:12:18.385Z,0
2016-10-26T06:13:18.374Z,0
2016-10-26T06:14:18.420Z,0
2016-10-26T06:15:18.426Z,0
2016-10-26T06:16:18.441Z,0
2016-10-26T06:17:18.429Z,0
2016-10-26T06:18:18.426Z,0
2016-10-26T06:19:18.406Z,0
2016-10-26T06:20:18.394Z,0
2016-10-26T06:21:18.391Z,0
2016-10-26T06:22:18.419Z,5
2016-10-26T06:23:18.419Z,5
2016-10-26T06:24:18.356Z,5
2016-10-26T06:25:18.466Z,5
2016-10-26T06:26:18.321Z,5
2016-10-26T06:27:18.362Z,5
2016-10-26T06:28:18.349Z,5
2016-10-26T06:29:18.400Z,5
2016-10-26T06:30:18.398Z,5
2016-10-26T06:31:18.346Z,5
2016-10-26T06:32:18.398Z,5
2016-10-26T06:33:18.394Z,5
2016-10-26T06:34:18.354Z,5
2016-10-26T06:35:18.423Z,10
2016-10-26T06:36:18.455Z,10
2016-10-26T06:37:18.353Z,10
2016-10-26T06:38:18.392Z,10
2016-10-26T06:39:18.375Z,15
2016-10-26T06:40:18.410Z,15
2016-10-26T06:41:18.457Z,15
2016-10-26T06:42:18.461Z,20
2016-10-26T06:43:18.504Z,20
2016-10-26T06:44:18.477Z,20
2016-10-26T06:45:18.516Z,20
2016-10-26T06:46:18.372Z,20
2016-10-26T06:47:18.388Z,20
2016-10-26T06:48:18.441Z,20
2016-10-26T06:49:18.582Z,25
2016-10-26T06:50:18.529Z,25
2016-10-26T06:51:18.466Z,25
2016-10-26T06:52:18.410Z,30
2016-10-26T06:53:18.414Z,30
2016-10-26T06:54:18.402Z,25
2016-10-26T06:55:18.434Z,25
2016-10-26T06:56:18.358Z,25
2016-10-26T06:57:18.452Z,25
2016-10-26T06:58:18.512Z,25
2016-10-26T06:59:18.478Z,30
2016-10-26T07:00:18.521Z,30
2016-10-26T07:01:18.433Z,30
2016-10-26T07:02:18.498Z,30
2016-10-26T07:03:18.628Z,30
2016-10-26T07:04:18.439Z,30
2016-10-26T07:05:18.467Z,30
2016-10-26T07:06:18.468Z,30
2016-10-26T07:07:18.533Z,35
2016-10-26T07:08:24.185Z,40
2016-10-26T07:09:18.510Z,40
2016-10-26T07:10:18.638Z,40
2016-10-26T07:11:18.581Z,40
2016-10-26T07:12:18.529Z,40
2016-10-26T07:13:19.033Z,45
2016-10-26T07:14:18.464Z,45
2016-10-26T07:15:18.583Z,45
2016-10-26T07:16:18.571Z,40
2016-10-26T07:17:18.465Z,45
2016-10-26T07:18:18.452Z,45
2016-10-26T07:19:18.571Z,45
2016-10-26T07:20:18.500Z,50
2016-10-26T07:21:18.495Z,50
2016-10-26T07:22:18.586Z,45
2016-10-26T07:23:18.711Z,45
2016-10-26T07:24:18.453Z,45
2016-10-26T07:25:18.520Z,50
2016-10-26T07:26:18.453Z,50
2016-10-26T07:27:18.424Z,45
2016-10-26T07:28:18.454Z,50
2016-10-26T07:29:18.450Z,50
2016-10-26T07:30:18.725Z,45
2016-10-26T07:31:18.774Z,45
2016-10-26T07:32:18.555Z,45
2016-10-26T07:33:18.466Z,40
2016-10-26T07:34:18.437Z,40
2016-10-26T07:35:18.590Z,40
2016-10-26T07:36:18.436Z,40
2016-10-26T07:37:18.408Z,40
2016-10-26T07:38:18.415Z,40
2016-10-26T07:39:18.540Z,35
2016-10-26T07:40:18.532Z,35
2016-10-26T07:41:18.513Z,35
2016-10-26T07:42:18.456Z,35
2016-10-26T07:43:18.423Z,35
2016-10-26T07:44:18.432Z,40
2016-10-26T07:45:18.744Z,40
2016-10-26T07:46:19.063Z,40
2016-10-26T07:47:18.442Z,40
2016-10-26T07:48:18.620Z,45
2016-10-26T07:49:18.499Z,45
2016-10-26T07:50:19.076Z,50
2016-10-26T07:51:18.483Z,55
2016-10-26T07:52:18.458Z,55
2016-10-26T07:53:19.126Z,60
2016-10-26T07:54:18.662Z,60
2016-10-26T07:55:18.512Z,65
2016-10-26T07:56:18.490Z,65
2016-10-26T07:57:18.523Z,65
2016-10-26T07:58:18.456Z,70
2016-10-26T07:59:19.092Z,75
2016-10-26T08:00:18.501Z,80
2016-10-26T08:01:18.462Z,85
2016-10-26T08:02:18.441Z,100
2016-10-26T08:03:19.441Z,100
2016-10-26T08:04:18.486Z,105
2016-10-26T08:05:19.350Z,105
2016-10-26T08:06:18.508Z,110
2016-10-26T08:07:18.462Z,115
2016-10-26T08:08:18.905Z,120
2016-10-26T08:09:18.502Z,125
2016-10-26T08:10:20.206Z,130
2016-10-26T08:11:18.472Z,135
2016-10-26T08:12:18.712Z,130
2016-10-26T08:13:18.459Z,125
2016-10-26T08:14:18.457Z,125
2016-10-26T08:15:19.468Z,120
2016-10-26T08:16:18.505Z,120
2016-10-26T08:17:19.619Z,120
2016-10-26T08:18:18.505Z,120
2016-10-26T08:19:18.483Z,120
2016-10-26T08:20:18.540Z,120
2016-10-26T08:21:19.001Z,120
2016-10-26T08:22:18.566Z,115
2016-10-26T08:23:18.672Z,110
2016-10-26T08:24:18.577Z,110
2016-10-26T08:25:18.497Z,100
2016-10-26T08:26:18.502Z,95
2016-10-26T08:27:18.675Z,95
2016-10-26T08:28:18.593Z,95
2016-10-26T08:29:18.497Z,100
2016-10-26T08:30:18.740Z,100
2016-10-26T08:31:18.582Z,90
2016-10-26T08:32:18.562Z,80
2016-10-26T08:33:18.479Z,80
2016-10-26T08:34:18.791Z,80
2016-10-26T08:35:18.444Z,80
2016-10-26T08:36:19.673Z,85
2016-10-26T08:37:18.490Z,90
2016-10-26T08:38:18.831Z,95
2016-10-26T08:39:18.534Z,100
2016-10-26T08:40:18.554Z,105
2016-10-26T08:41:18.572Z,100
2016-10-26T08:42:18.515Z,100
2016-10-26T08:43:18.685Z,105
2016-10-26T08:44:18.465Z,110
2016-10-26T08:45:18.906Z,110
2016-10-26T08:46:18.542Z,115
2016-10-26T08:47:18.612Z,115
2016-10-26T08:48:18.656Z,110
2016-10-26T08:49:18.636Z,110
2016-10-26T08:50:18.576Z,110
2016-10-26T08:51:18.618Z,110
2016-10-26T08:52:18.508Z,120
2016-10-26T08:53:18.557Z,130
2016-10-26T08:54:18.844Z,140
2016-10-26T08:55:19.580Z,145
2016-10-26T08:56:18.637Z,135
2016-10-26T08:57:18.694Z,120
2016-10-26T08:58:19.344Z,115
2016-10-26T08:59:22.214Z,115
2016-10-26T09:00:22.665Z,110
2016-10-26T09:01:29.343Z,120
2016-10-26T09:02:21.428Z,130
2016-10-26T09:03:21.766Z,145
2016-10-26T09:04:22.992Z,145
2016-10-26T09:05:25.965Z,150
2016-10-26T09:06:21.861Z,155
2016-10-26T09:07:21.012Z,165
2016-10-26T09:08:18.522Z,165
2016-10-26T09:09:18.633Z,170
2016-10-26T09:10:18.567Z,175
2016-10-26T09:11:18.663Z,185
2016-10-26T09:12:18.615Z,185
2016-10-26T09:13:18.825Z,165
2016-10-26T09:14:18.700Z,170
2016-10-26T09:15:19.028Z,180
2016-10-26T09:16:19.059Z,180
2016-10-26T09:17:19.089Z,180
2016-10-26T09:18:19.234Z,175
2016-10-26T09:19:18.616Z,165
2016-10-26T09:20:18.854Z,160
2016-10-26T09:21:18.914Z,160
2016-10-26T09:22:18.709Z,165
2016-10-26T09:23:18.898Z,180
2016-10-26T09:24:18.879Z,190
2016-10-26T09:25:18.688Z,200
2016-10-26T09:26:18.838Z,200
2016-10-26T09:27:18.841Z,200
2016-10-26T09:28:19.417Z,220
2016-10-26T09:29:19.430Z,230
2016-10-26T09:30:18.805Z,220
2016-10-26T09:31:19.216Z,190
2016-10-26T09:32:18.784Z,165
2016-10-26T09:33:18.850Z,150
2016-10-26T09:34:18.895Z,145
2016-10-26T09:35:18.796Z,145
2016-10-26T09:36:18.810Z,145
2016-10-26T09:37:18.879Z,140
2016-10-26T09:38:19.788Z,135
2016-10-26T09:39:18.764Z,130
2016-10-26T09:40:19.930Z,120
2016-10-26T09:41:19.577Z,120
2016-10-26T09:42:19.797Z,130
2016-10-26T09:43:19.910Z,145
2016-10-26T09:44:20.495Z,155
2016-10-26T09:45:18.779Z,150
2016-10-26T09:46:18.982Z,145
2016-10-26T09:47:20.168Z,135
2016-10-26T09:48:19.192Z,130
2016-10-26T09:49:24.872Z,135
2016-10-26T09:50:21.250Z,145
2016-10-26T09:51:18.768Z,150
2016-10-26T09:52:18.570Z,155
2016-10-26T09:53:18.812Z,160
2016-10-26T09:54:18.632Z,170
2016-10-26T09:55:18.777Z,170
2016-10-26T09:56:18.558Z,165
2016-10-26T09:57:18.565Z,165
2016-10-26T09:58:18.600Z,165
2016-10-26T09:59:18.533Z,155
2016-10-26T10:00:18.600Z,155
2016-10-26T10:01:18.609Z,160
2016-10-26T10:02:18.641Z,165
2016-10-26T10:03:18.574Z,160
2016-10-26T10:04:18.629Z,160
2016-10-26T10:05:18.606Z,150
2016-10-26T10:06:18.658Z,140
2016-10-26T10:07:18.548Z,140
2016-10-26T10:08:18.635Z,150
2016-10-26T10:09:18.648Z,170
2016-10-26T10:10:19.503Z,190
2016-10-26T10:11:18.611Z,205
2016-10-26T10:12:18.609Z,215
2016-10-26T10:13:18.625Z,210
2016-10-26T10:14:18.614Z,200
2016-10-26T10:15:18.642Z,190
2016-10-26T10:16:18.603Z,185
2016-10-26T10:17:18.625Z,190
2016-10-26T10:18:18.686Z,195
2016-10-26T10:19:18.630Z,200
2016-10-26T10:20:18.628Z,200
2016-10-26T10:21:18.665Z,205
2016-10-26T10:22:18.599Z,205
2016-10-26T10:23:18.559Z,205
2016-10-26T10:24:18.571Z,210
2016-10-26T10:25:18.545Z,215
2016-10-26T10:26:18.647Z,225
2016-10-26T10:27:18.543Z,225
2016-10-26T10:28:18.813Z,215
2016-10-26T10:29:18.631Z,210
2016-10-26T10:30:18.637Z,215
2016-10-26T10:31:18.565Z,215
2016-10-26T10:32:19.165Z,215
2016-10-26T10:33:18.585Z,215
2016-10-26T10:34:18.544Z,225
2016-10-26T10:35:18.544Z,235
2016-10-26T10:36:18.661Z,235
2016-10-26T10:37:18.631Z,220
2016-10-26T10:38:18.647Z,225
2016-10-26T10:39:18.605Z,230
2016-10-26T10:40:18.672Z,240
2016-10-26T10:41:18.694Z,255
2016-10-26T10:42:18.684Z,255
2016-10-26T10:43:18.573Z,250
2016-10-26T10:44:18.640Z,235
2016-10-26T10:45:18.624Z,235
2016-10-26T10:46:19.026Z,255
2016-10-26T10:47:18.732Z,275
2016-10-26T10:48:18.714Z,290
2016-10-26T10:49:18.734Z,300
2016-10-26T10:50:18.650Z,300
2016-10-26T10:51:18.631Z,300
2016-10-26T10:52:18.628Z,295
2016-10-26T10:53:18.805Z,290
2016-10-26T10:54:19.360Z,285
2016-10-26T10:55:18.590Z,285
2016-10-26T10:56:18.644Z,290
2016-10-26T10:57:18.736Z,285
2016-10-26T10:58:18.788Z,275
2016-10-26T10:59:18.673Z,275
2016-10-26T11:00:18.637Z,265
2016-10-26T11:01:18.862Z,250
2016-10-26T11:02:18.632Z,245
2016-10-26T11:03:19.026Z,240
2016-10-26T11:04:18.788Z,235
2016-10-26T11:05:18.631Z,230
2016-10-26T11:06:18.677Z,205
2016-10-26T11:07:18.738Z,185
2016-10-26T11:08:18.698Z,175
2016-10-26T11:09:18.711Z,170
2016-10-26T11:10:18.687Z,165
2016-10-26T11:11:19.454Z,160
2016-10-26T11:12:18.795Z,160
2016-10-26T11:13:18.639Z,165
2016-10-26T11:14:18.903Z,160
2016-10-26T11:15:18.655Z,150
2016-10-26T11:16:18.639Z,140
2016-10-26T11:17:19.169Z,130
2016-10-26T11:18:18.707Z,130
2016-10-26T11:19:18.824Z,140
2016-10-26T11:20:18.692Z,150
2016-10-26T11:21:18.840Z,160
2016-10-26T11:22:18.735Z,175
2016-10-26T11:23:18.672Z,185
2016-10-26T11:24:19.423Z,185
2016-10-26T11:25:19.772Z,180
2016-10-26T11:26:18.628Z,180
2016-10-26T11:27:18.689Z,180
2016-10-26T11:28:18.785Z,180
2016-10-26T11:29:18.780Z,170
2016-10-26T11:30:18.657Z,160
2016-10-26T11:31:19.758Z,150
2016-10-26T11:32:18.737Z,155
2016-10-26T11:33:19.708Z,185
2016-10-26T11:34:19.041Z,210
2016-10-26T11:35:18.776Z,235
2016-10-26T11:36:18.701Z,235
2016-10-26T11:37:18.708Z,230
2016-10-26T11:38:18.787Z,225
2016-10-26T11:39:18.710Z,220
2016-10-26T11:40:18.827Z,210
2016-10-26T11:41:18.722Z,185
2016-10-26T11:42:18.710Z,170
2016-10-26T11:43:18.728Z,170
2016-10-26T11:44:18.636Z,175
2016-10-26T11:45:18.741Z,185
2016-10-26T11:46:18.722Z,185
2016-10-26T11:47:19.516Z,190
2016-10-26T11:48:18.739Z,205
2016-10-26T11:49:18.722Z,225
2016-10-26T11:50:18.680Z,255
2016-10-26T11:51:18.703Z,270
2016-10-26T11:52:19.667Z,275
2016-10-26T11:53:18.681Z,260
2016-10-26T11:54:18.672Z,250
2016-10-26T11:55:19.232Z,240
2016-10-26T11:56:18.774Z,225
2016-10-26T11:57:18.655Z,210
2016-10-26T11:58:18.668Z,200
2016-10-26T11:59:18.856Z,195
2016-10-26T12:00:18.663Z,200
2016-10-26T12:01:18.655Z,195
2016-10-26T12:02:18.689Z,185
2016-10-26T12:03:18.805Z,175
2016-10-26T12:04:18.681Z,175
2016-10-26T12:05:18.764Z,170
2016-10-26T12:06:18.748Z,170
2016-10-26T12:07:18.759Z,160
2016-10-26T12:08:18.921Z,150
2016-10-26T12:09:18.690Z,150
2016-10-26T12:10:18.719Z,145
2016-10-26T12:11:21.117Z,135
2016-10-26T12:12:18.669Z,115
2016-10-26T12:13:18.732Z,105
2016-10-26T12:14:18.694Z,100
2016-10-26T12:15:18.802Z,100
2016-10-26T12:16:18.722Z,105
2016-10-26T12:17:18.639Z,115
2016-10-26T12:18:18.706Z,120
2016-10-26T12:19:18.668Z,120
2016-10-26T12:20:18.721Z,125
2016-10-26T12:21:18.682Z,135
2016-10-26T12:22:18.759Z,145
2016-10-26T12:23:19.014Z,145
2016-10-26T12:24:18.699Z,140
2016-10-26T12:25:18.704Z,135
2016-10-26T12:26:18.772Z,130
2016-10-26T12:27:27.059Z,135
2016-10-26T12:28:18.662Z,140
2016-10-26T12:29:18.702Z,160
2016-10-26T12:30:18.627Z,185
2016-10-26T12:31:18.665Z,165
2016-10-26T12:32:18.726Z,145
2016-10-26T12:33:18.692Z,145
2016-10-26T12:34:18.788Z,155
2016-10-26T12:35:18.819Z,175
2016-10-26T12:36:18.732Z,190
2016-10-26T12:37:19.246Z,195
2016-10-26T12:38:18.771Z,190
2016-10-26T12:39:18.921Z,200
2016-10-26T12:40:18.724Z,215
2016-10-26T12:41:58.336Z,210
2016-10-26T12:43:30.359Z,215
2016-10-26T12:44:10.205Z,215
2016-10-26T12:44:52.615Z,210
2016-10-26T12:45:45.556Z,210
2016-10-26T12:46:45.622Z,215
2016-10-26T12:47:45.526Z,215
2016-10-26T12:48:45.545Z,215
2016-10-26T12:49:46.108Z,210
2016-10-26T12:50:45.545Z,210
2016-10-26T12:51:45.735Z,205
2016-10-26T12:52:45.543Z,205
2016-10-26T12:53:45.533Z,200
2016-10-26T12:54:45.474Z,195
2016-10-26T12:55:45.568Z,190
2016-10-26T12:56:45.562Z,190
2016-10-26T12:57:45.540Z,190
2016-10-26T12:58:45.543Z,180
2016-10-26T12:59:45.517Z,170
2016-10-26T13:00:45.610Z,170
2016-10-26T13:01:45.613Z,165
2016-10-26T13:02:45.640Z,165
2016-10-26T13:03:45.578Z,165
2016-10-26T13:04:45.502Z,155
2016-10-26T13:05:45.635Z,145
2016-10-26T13:06:46.475Z,140
2016-10-26T13:07:45.636Z,140
2016-10-26T13:08:45.568Z,135
2016-10-26T13:09:45.517Z,140
2016-10-26T13:10:45.665Z,145
2016-10-26T13:11:46.275Z,150
2016-10-26T13:12:45.574Z,150
2016-10-26T13:13:45.789Z,150
2016-10-26T13:14:45.653Z,150
2016-10-26T13:15:45.527Z,145
2016-10-26T13:16:46.007Z,140
2016-10-26T13:17:45.632Z,140
2016-10-26T13:18:45.861Z,125
2016-10-26T13:19:45.531Z,120
2016-10-26T13:20:45.579Z,120
2016-10-26T13:21:46.455Z,120
2016-10-26T13:22:45.544Z,125
2016-10-26T13:23:45.635Z,115
2016-10-26T13:24:45.532Z,100
2016-10-26T13:25:45.514Z,90
2016-10-26T13:26:45.657Z,90
2016-10-26T13:27:45.558Z,100
2016-10-26T13:28:46.411Z,115
2016-10-26T13:29:45.568Z,130
2016-10-26T13:30:45.589Z,145
2016-10-26T13:31:45.594Z,155
2016-10-26T13:32:45.560Z,160
2016-10-26T13:33:45.608Z,170
2016-10-26T13:34:45.597Z,170
2016-10-26T13:35:45.614Z,175
2016-10-26T13:36:45.610Z,180
2016-10-26T13:37:45.642Z,175
2016-10-26T13:38:45.584Z,170
2016-10-26T13:39:45.751Z,170
2016-10-26T13:40:45.597Z,170
2016-10-26T13:41:45.610Z,170
2016-10-26T13:42:45.726Z,170
2016-10-26T13:43:45.571Z,160
2016-10-26T13:44:45.613Z,150
2016-10-26T13:45:45.578Z,150
2016-10-26T13:46:45.597Z,145
2016-10-26T13:47:46.246Z,145
2016-10-26T13:48:45.553Z,145
2016-10-26T13:49:45.586Z,150
2016-10-26T13:50:45.540Z,155
2016-10-26T13:51:45.505Z,160
2016-10-26T13:52:45.535Z,165
2016-10-26T13:53:45.521Z,170
2016-10-26T13:54:45.544Z,175
2016-10-26T13:55:45.536Z,175
2016-10-26T13:56:45.651Z,170
2016-10-26T13:57:45.622Z,165
2016-10-26T13:58:45.992Z,135
2016-10-26T13:59:45.565Z,120
2016-10-26T14:00:45.641Z,115
2016-10-26T14:01:45.667Z,110
2016-10-26T14:02:45.629Z,110
2016-10-26T14:03:45.718Z,110
2016-10-26T14:04:45.640Z,110
2016-10-26T14:05:45.612Z,110
2016-10-26T14:06:45.605Z,125
2016-10-26T14:07:45.627Z,125
2016-10-26T14:08:45.604Z,125
2016-10-26T14:09:46.187Z,125
2016-10-26T14:10:45.602Z,120
2016-10-26T14:11:45.606Z,110
2016-10-26T14:12:45.592Z,110
2016-10-26T14:13:45.632Z,110
2016-10-26T14:14:45.656Z,110
2016-10-26T14:15:45.914Z,110
2016-10-26T14:16:46.720Z,100